Time;durP1;ratioP1;P1;durP2;ratioP2;P2;SDS_P1;SDS_P2;PMS_P1;PMS_P2;Temp;Humidity;BMP_temperature;BMP_pressure;BME280_temperature;BME280_humidity;BME280_pressure;Samples;Min_cycle;Max_cycle;Signal;HPM_P1;HPM_P2
2021/12/26 00:00:33;;;;;;;10.27;3.08;;;;;;;-2.01;67.23;100667.34;5012620;28;20087;-84
2021/12/26 00:02:59;;;;;;;12.18;3.00;;;;;;;-2.04;67.37;100653.38;5017871;28;20030;-84
2021/12/26 00:05:27;;;;;;;9.20;3.08;;;;;;;-2.04;66.95;100661.28;4990930;28;20567;-84
2021/12/26 00:07:52;;;;;;;10.63;2.80;;;;;;;-2.06;66.83;100653.44;5008792;28;20045;-85
2021/12/26 00:10:21;;;;;;;8.88;2.47;;;;;;;-2.05;67.53;100659.53;4990518;28;20454;-85
2021/12/26 00:12:47;;;;;;;9.15;2.80;;;;;;;-2.06;67.19;100657.84;4997018;28;20017;-85
2021/12/26 00:15:12;;;;;;;7.70;2.60;;;;;;;-2.07;66.92;100656.09;5012241;28;20025;-84
2021/12/26 00:17:38;;;;;;;11.15;3.38;;;;;;;-2.11;67.18;100656.19;4998766;28;20079;-84
2021/12/26 00:20:05;;;;;;;14.25;3.05;;;;;;;-2.14;67.67;100656.25;4994374;28;20113;-84
2021/12/26 00:22:31;;;;;;;10.30;3.40;;;;;;;-2.17;67.33;100647.53;5023270;28;20466;-84
2021/12/26 00:24:56;;;;;;;10.82;3.25;;;;;;;-2.22;67.95;100641.53;4994615;28;20033;-85
2021/12/26 00:27:21;;;;;;;10.35;3.03;;;;;;;-2.23;67.93;100640.66;5013331;28;20649;-84
2021/12/26 00:29:47;;;;;;;11.13;3.10;;;;;;;-2.24;67.38;100641.56;4999012;28;20039;-85
2021/12/26 00:32:12;;;;;;;12.75;3.55;;;;;;;-2.26;67.63;100638.09;5020260;28;20037;-84
2021/12/26 00:34:38;;;;;;;10.07;2.88;;;;;;;-2.28;67.60;100640.78;5007611;28;20041;-84
2021/12/26 00:37:05;;;;;;;15.43;3.95;;;;;;;-2.25;67.43;100626.69;4996736;28;20477;-84
2021/12/26 00:39:31;;;;;;;10.27;3.10;;;;;;;-2.22;67.47;100636.28;4981853;28;20034;-84
2021/12/26 00:41:56;;;;;;;9.10;3.03;;;;;;;-2.25;68.03;100631.09;4995194;28;20095;-84
2021/12/26 00:44:21;;;;;;;11.23;3.45;;;;;;;-2.25;68.11;100639.84;4998032;28;20079;-84
2021/12/26 00:46:47;;;;;;;13.10;3.33;;;;;;;-2.27;67.67;100623.19;4991316;28;20041;-84
2021/12/26 00:49:12;;;;;;;9.88;3.10;;;;;;;-2.29;68.03;100640.81;4997961;28;20057;-84
2021/12/26 00:51:37;;;;;;;14.70;3.90;;;;;;;-2.32;67.64;100633.00;5015511;28;20116;-84
2021/12/26 00:54:02;;;;;;;9.82;2.80;;;;;;;-2.33;69.04;100636.50;4991250;28;20029;-84
2021/12/26 00:56:28;;;;;;;10.38;3.00;;;;;;;-2.31;68.68;100632.94;5008385;28;20055;-84
2021/12/26 00:58:53;;;;;;;12.45;3.30;;;;;;;-2.29;68.28;100639.03;5007752;28;20694;-84
2021/12/26 01:01:18;;;;;;;10.88;3.28;;;;;;;-2.24;68.32;100644.22;4983660;28;20096;-84
2021/12/26 01:03:44;;;;;;;8.98;2.85;;;;;;;-2.18;69.11;100638.78;4985863;28;20044;-84
2021/12/26 01:06:09;;;;;;;11.45;3.55;;;;;;;-2.12;68.43;100630.75;4990314;28;20029;-84
2021/12/26 01:08:40;;;;;;;11.40;3.17;;;;;;;-2.06;69.03;100637.63;4989705;28;20510;-84
2021/12/26 01:11:38;;;;;;;10.25;3.00;;;;;;;-1.96;68.37;100641.75;5011724;28;20030;-84
2021/12/26 01:14:12;;;;;;;11.18;2.92;;;;;;;-1.92;68.17;100649.59;5013070;28;20226;-84
2021/12/26 01:16:37;;;;;;;13.55;3.60;;;;;;;-1.86;67.87;100645.03;4998010;28;20470;-84
2021/12/26 01:19:15;;;;;;;16.80;3.55;;;;;;;-1.82;67.67;100643.19;5001190;28;20029;-84
2021/12/26 01:21:43;;;;;;;7.97;2.97;;;;;;;-1.78;67.59;100632.53;4997021;28;20025;-84
2021/12/26 01:24:12;;;;;;;13.93;4.18;;;;;;;-1.70;66.75;100634.09;4991076;28;20030;-84
2021/12/26 01:26:37;;;;;;;9.88;3.10;;;;;;;-1.71;67.18;100633.25;4990408;28;20026;-84
2021/12/26 01:29:05;;;;;;;8.30;3.10;;;;;;;-1.68;66.75;100635.78;4990296;28;20470;-84
2021/12/26 01:31:30;;;;;;;9.13;3.10;;;;;;;-1.68;67.17;100630.53;4997364;28;20036;-84
2021/12/26 01:33:59;;;;;;;10.48;3.08;;;;;;;-1.64;66.41;100629.53;5006314;28;20113;-84
2021/12/26 01:36:26;;;;;;;16.50;4.35;;;;;;;-1.61;66.28;100628.56;5017688;28;20026;-84
2021/12/26 01:38:51;;;;;;;9.60;2.92;;;;;;;-1.61;66.57;100621.56;4992878;28;21535;-84
2021/12/26 01:41:18;;;;;;;12.93;3.75;;;;;;;-1.59;66.55;100627.63;5004368;28;20037;-84
2021/12/26 01:43:47;;;;;;;10.77;3.00;;;;;;;-1.54;66.11;100629.28;5014831;28;20021;-84
2021/12/26 01:46:14;;;;;;;14.45;4.25;;;;;;;-1.52;66.25;100628.34;4994770;28;20350;-84
2021/12/26 01:48:40;;;;;;;12.70;3.50;;;;;;;-1.51;66.42;100624.78;5023704;28;20026;-84
2021/12/26 01:51:05;;;;;;;10.85;3.38;;;;;;;-1.51;66.52;100622.16;5002101;28;20326;-84
2021/12/26 01:53:37;;;;;;;11.18;2.97;;;;;;;-1.52;66.31;100628.34;5001599;28;20021;-84
2021/12/26 01:56:06;;;;;;;8.57;2.90;;;;;;;-1.49;66.15;100623.00;4994011;28;20029;-84
2021/12/26 01:58:32;;;;;;;12.57;3.58;;;;;;;-1.46;67.05;100622.91;5011647;28;20030;-84
2021/12/26 02:01:10;;;;;;;14.25;3.70;;;;;;;-1.43;67.50;100622.81;4996680;28;20084;-84
2021/12/26 02:03:37;;;;;;;13.35;3.38;;;;;;;-1.42;66.81;100631.56;4999884;28;20033;-84
2021/12/26 02:06:04;;;;;;;10.73;3.05;;;;;;;-1.41;66.57;100626.28;5005215;28;20060;-84
2021/12/26 02:08:29;;;;;;;13.13;4.03;;;;;;;-1.41;66.40;100618.38;4993744;28;20104;-84
2021/12/26 02:10:59;;;;;;;11.10;3.10;;;;;;;-1.38;67.39;100624.47;4993915;28;20026;-84
2021/12/26 02:13:25;;;;;;;14.65;3.53;;;;;;;-1.39;67.31;100620.09;4997937;28;20532;-84
2021/12/26 02:15:51;;;;;;;13.65;3.72;;;;;;;-1.37;67.04;100615.66;4992767;28;20076;-84
2021/12/26 02:18:20;;;;;;;11.68;3.55;;;;;;;-1.34;66.67;100621.69;5013147;28;20025;-84
2021/12/26 02:28:42;;;;;;;11.40;4.05;;;;;;;-1.29;67.08;100617.19;5013528;28;20038;-84
2021/12/26 02:31:07;;;;;;;13.93;3.95;;;;;;;-1.29;67.58;100603.09;4999148;28;20021;-84
2021/12/26 02:33:33;;;;;;;11.63;3.20;;;;;;;-1.26;67.66;100603.91;4993481;28;20029;-84
2021/12/26 02:35:59;;;;;;;13.13;3.35;;;;;;;-1.25;67.06;100600.34;4992513;28;20072;-84
2021/12/26 02:38:25;;;;;;;11.65;4.10;;;;;;;-1.26;66.23;100603.91;5009064;28;20049;-84
2021/12/26 02:40:54;;;;;;;14.27;3.42;;;;;;;-1.27;66.24;100599.53;4986248;28;20021;-84
2021/12/26 02:43:23;;;;;;;12.13;3.30;;;;;;;-1.24;65.97;100603.84;5016697;28;20751;-84
2021/12/26 02:45:49;;;;;;;11.90;3.40;;;;;;;-1.25;66.41;100596.84;5010055;28;20033;-84
2021/12/26 02:48:15;;;;;;;11.02;3.50;;;;;;;-1.24;66.29;100601.22;4993316;28;20025;-84
2021/12/26 02:50:42;;;;;;;15.27;3.70;;;;;;;-1.22;66.49;100596.75;5009648;28;21186;-84
2021/12/26 02:53:20;;;;;;;14.15;3.47;;;;;;;-1.24;66.91;100596.81;4992754;28;20022;-84
2021/12/26 02:55:45;;;;;;;11.80;3.40;;;;;;;-1.24;66.82;100598.59;5014234;28;20044;-84
2021/12/26 02:58:10;;;;;;;13.98;4.05;;;;;;;-1.24;66.84;100601.22;4995885;28;20112;-84
2021/12/26 03:01:14;;;;;;;12.40;3.67;;;;;;;-1.21;66.91;100605.56;4999005;28;20079;-84
2021/12/26 03:03:39;;;;;;;11.50;3.13;;;;;;;-1.21;66.87;100600.28;4965647;28;20133;-84
2021/12/26 03:06:14;;;;;;;13.38;3.42;;;;;;;-1.23;66.11;100597.66;4992523;28;20109;-84
2021/12/26 03:08:40;;;;;;;11.70;3.65;;;;;;;-1.23;66.42;100592.38;4991962;28;20052;-84
2021/12/26 03:11:06;;;;;;;12.80;3.78;;;;;;;-1.22;66.28;100599.41;5018689;28;20021;-84
2021/12/26 03:13:31;;;;;;;11.00;3.63;;;;;;;-1.25;66.37;100589.78;4997035;28;21902;-84
2021/12/26 03:15:57;;;;;;;12.60;3.88;;;;;;;-1.23;65.50;100595.03;4992275;28;20022;-84
2021/12/26 03:18:22;;;;;;;12.95;4.15;;;;;;;-1.26;66.63;100596.00;4992526;28;20344;-84
2021/12/26 03:20:50;;;;;;;13.57;3.70;;;;;;;-1.27;65.75;100585.50;4991514;28;20105;-84
2021/12/26 03:23:20;;;;;;;13.38;4.50;;;;;;;-1.31;66.27;100582.06;5009109;28;20053;-84
2021/12/26 03:25:45;;;;;;;;;;;;;;;-1.29;66.75;100572.34;5017182;28;20092;-84
2021/12/26 03:28:11;;;;;;;16.63;4.55;;;;;;;-1.45;66.40;100569.28;4991506;28;19914;-84
2021/12/26 03:30:37;;;;;;;14.40;3.88;;;;;;;-1.55;67.20;100570.44;4995875;28;20068;-84
2021/12/26 03:33:05;;;;;;;12.85;4.22;;;;;;;-1.61;67.44;100570.59;4991804;28;20033;-84
2021/12/26 03:35:31;;;;;;;11.75;3.75;;;;;;;-1.70;67.37;100570.84;5002923;28;20124;-84
2021/12/26 03:37:58;;;;;;;12.35;3.70;;;;;;;-1.76;67.92;100578.03;4992590;28;20120;-84
2021/12/26 03:40:23;;;;;;;12.05;4.18;;;;;;;-1.79;68.05;100574.59;4983534;28;20059;-84
2021/12/26 03:42:51;;;;;;;12.50;3.83;;;;;;;-1.86;68.23;100573.91;4994728;28;20033;-84
2021/12/26 03:45:17;;;;;;;15.13;4.43;;;;;;;-1.87;67.77;100573.97;4999380;28;20068;-84
2021/12/26 03:47:42;;;;;;;13.93;3.13;;;;;;;-1.92;68.42;100581.97;4993789;28;20072;-84
2021/12/26 03:50:09;;;;;;;12.88;3.80;;;;;;;-1.95;68.34;100584.69;4991126;28;20025;-84
2021/12/26 03:52:35;;;;;;;14.30;3.78;;;;;;;-1.97;68.03;100583.88;5008190;28;20132;-84
2021/12/26 03:55:00;;;;;;;14.18;4.38;;;;;;;-2.02;68.71;100581.34;4992827;28;20022;-84
2021/12/26 03:57:25;;;;;;;13.90;4.20;;;;;;;-2.01;68.55;100575.16;5008715;28;20070;-84
2021/12/26 03:59:50;;;;;;;11.57;3.65;;;;;;;-2.06;68.78;100584.09;4989653;28;20445;-84
2021/12/26 04:02:16;;;;;;;15.10;3.30;;;;;;;-2.08;68.65;100570.09;4991193;28;20112;-84
2021/12/26 04:04:42;;;;;;;12.93;4.00;;;;;;;-2.12;68.48;100570.19;4991340;28;20160;-84
2021/12/26 04:07:09;;;;;;;10.30;3.20;;;;;;;-2.13;68.70;100573.72;4993399;28;20519;-84
2021/12/26 04:09:34;;;;;;;12.40;3.72;;;;;;;-2.15;69.23;100567.63;4991348;28;20695;-84
2021/12/26 04:12:00;;;;;;;14.07;3.97;;;;;;;-2.17;69.09;100571.19;4992913;28;20021;-84
2021/12/26 04:14:25;;;;;;;13.32;3.33;;;;;;;-2.20;69.55;100569.50;4999558;28;20026;-84
2021/12/26 04:16:50;;;;;;;14.52;4.18;;;;;;;-2.25;68.99;100558.22;5019051;28;20037;-84
2021/12/26 04:19:16;;;;;;;11.52;3.63;;;;;;;-2.24;68.91;100565.25;4991912;28;20137;-84
2021/12/26 04:21:41;;;;;;;14.20;4.35;;;;;;;-2.25;69.60;100565.28;4991756;28;20401;-84
2021/12/26 04:24:06;;;;;;;9.95;3.30;;;;;;;-2.26;69.00;100563.53;4996531;28;20084;-84
2021/12/26 04:26:32;;;;;;;11.07;3.60;;;;;;;-2.29;69.22;100567.09;4995084;28;20066;-84
2021/12/26 04:28:58;;;;;;;13.50;3.95;;;;;;;-2.30;69.31;100565.38;4993447;28;20021;-84
2021/12/26 04:31:24;;;;;;;10.27;3.28;;;;;;;-2.35;69.08;100573.38;5015460;28;20029;-84
2021/12/26 04:33:49;;;;;;;14.25;4.25;;;;;;;-2.36;69.47;100570.78;4994760;28;20094;-85
2021/12/26 04:36:15;;;;;;;14.15;3.75;;;;;;;-2.42;69.54;100560.41;4990311;28;20041;-84
2021/12/26 04:38:40;;;;;;;12.00;3.47;;;;;;;-2.43;68.81;100561.31;4980143;28;20088;-84
2021/12/26 04:41:06;;;;;;;14.15;4.35;;;;;;;-2.46;69.63;100555.22;4983713;28;20083;-84
2021/12/26 04:43:35;;;;;;;13.07;3.67;;;;;;;-2.46;69.51;100555.22;5009368;28;20402;-84
2021/12/26 04:46:05;;;;;;;13.98;3.13;;;;;;;-2.47;69.63;100557.91;4995266;28;20030;-84
2021/12/26 04:48:35;;;;;;;13.45;3.80;;;;;;;-2.49;70.04;100552.69;4990453;28;20061;-84
2021/12/26 04:51:00;;;;;;;11.63;3.63;;;;;;;-2.50;69.50;100543.03;4988150;28;20018;-84
2021/12/26 04:53:26;;;;;;;12.90;4.00;;;;;;;-2.50;69.18;100547.44;4991347;28;20064;-84
2021/12/26 04:55:52;;;;;;;8.45;2.88;;;;;;;-2.49;69.74;100552.69;5005923;28;20028;-84
2021/12/26 04:58:17;;;;;;;13.48;3.65;;;;;;;-2.53;69.78;100548.38;4996129;28;20121;-84
2021/12/26 05:00:42;;;;;;;11.52;4.10;;;;;;;-2.54;69.52;100556.31;4999896;28;20417;-84
2021/12/26 05:03:08;;;;;;;11.60;3.90;;;;;;;-2.58;70.13;100550.25;5003842;28;20140;-84
2021/12/26 05:05:35;;;;;;;16.52;4.03;;;;;;;-2.59;69.67;100551.16;5012088;28;20067;-84
2021/12/26 05:08:01;;;;;;;11.38;3.40;;;;;;;-2.58;70.51;100544.97;4982997;28;20064;-84
2021/12/26 05:10:28;;;;;;;14.13;4.13;;;;;;;-2.60;70.38;100545.94;4996147;28;20111;-84
2021/12/26 05:12:56;;;;;;;12.55;3.53;;;;;;;-2.65;70.39;100546.03;5006356;28;20091;-84
2021/12/26 05:15:21;;;;;;;15.10;3.65;;;;;;;-2.67;70.61;100548.69;5001192;28;20382;-84
2021/12/26 05:17:49;;;;;;;14.60;3.33;;;;;;;-2.72;70.94;100552.38;5002739;28;20120;-84
2021/12/26 05:20:18;;;;;;;15.32;3.83;;;;;;;-2.71;70.61;100540.91;4994131;28;20067;-84
2021/12/26 05:22:44;;;;;;;13.68;3.78;;;;;;;-2.70;69.98;100540.88;5011854;28;20032;-84
2021/12/26 05:25:09;;;;;;;15.38;4.05;;;;;;;-2.70;70.96;100540.03;4998295;28;20017;-84
2021/12/26 05:27:35;;;;;;;13.65;3.95;;;;;;;-2.70;70.96;100538.25;4993166;28;20026;-84
2021/12/26 05:30:00;;;;;;;17.08;3.97;;;;;;;-2.73;70.74;100534.84;5011528;28;20037;-84
2021/12/26 05:32:25;;;;;;;13.68;4.15;;;;;;;-2.73;70.95;100537.47;4992652;28;20392;-84
2021/12/26 05:34:51;;;;;;;12.88;3.95;;;;;;;-2.76;71.19;100532.28;5001290;28;20033;-84
2021/12/26 05:37:16;;;;;;;11.35;3.42;;;;;;;-2.77;72.00;100527.91;4993230;28;20034;-84
2021/12/26 05:39:42;;;;;;;11.55;4.05;;;;;;;-2.83;71.81;100516.63;5003251;28;20095;-84
2021/12/26 05:42:10;;;;;;;10.65;3.70;;;;;;;-2.84;71.95;100522.81;4990061;28;20034;-84
2021/12/26 05:44:36;;;;;;;11.75;3.55;;;;;;;-2.85;71.97;100521.06;4997149;28;20041;-84
2021/12/26 05:47:01;;;;;;;11.82;3.63;;;;;;;-2.85;72.14;100520.22;4993628;28;20362;-84
2021/12/26 05:49:27;;;;;;;13.45;4.35;;;;;;;-2.86;71.56;100521.09;5012463;28;20079;-84
2021/12/26 05:51:53;;;;;;;12.45;4.07;;;;;;;-2.88;71.84;100515.88;4994680;28;20118;-84
2021/12/26 05:54:18;;;;;;;16.35;4.70;;;;;;;-2.88;72.15;100515.88;4996885;28;20033;-85
2021/12/26 05:56:43;;;;;;;12.73;4.00;;;;;;;-2.88;71.90;100513.25;4994621;28;20087;-84
2021/12/26 05:59:09;;;;;;;15.77;4.05;;;;;;;-2.87;71.28;100506.22;4991865;28;20033;-84
2021/12/26 06:01:34;;;;;;;12.23;4.07;;;;;;;-2.85;70.90;100507.06;4993325;28;20127;-84
2021/12/26 06:03:59;;;;;;;12.38;3.65;;;;;;;-2.86;71.02;100507.97;5011574;28;20034;-84
2021/12/26 06:06:25;;;;;;;13.02;3.83;;;;;;;-2.87;71.46;100507.09;5012447;28;20450;-84
2021/12/26 06:08:50;;;;;;;10.88;3.13;;;;;;;-2.87;71.52;100507.09;5011462;28;20062;-84
2021/12/26 06:11:15;;;;;;;15.45;4.35;;;;;;;-2.88;71.73;100507.13;4994578;28;20639;-84
2021/12/26 06:13:40;;;;;;;15.18;3.63;;;;;;;-2.89;71.76;100505.41;5005715;28;20061;-84
2021/12/26 06:16:06;;;;;;;13.13;4.18;;;;;;;-2.90;71.41;100504.53;5011688;28;20026;-84
2021/12/26 06:18:31;;;;;;;13.02;3.60;;;;;;;-2.95;71.31;100495.03;4992969;28;20057;-84
2021/12/26 06:20:56;;;;;;;16.33;4.45;;;;;;;-2.97;71.63;100502.06;5009956;28;20030;-84
2021/12/26 06:23:22;;;;;;;11.90;4.07;;;;;;;-2.99;72.32;100510.00;5010083;28;20021;-84
2021/12/26 06:25:47;;;;;;;11.35;3.58;;;;;;;-3.02;72.59;100505.66;5011359;28;20445;-84
2021/12/26 06:28:12;;;;;;;14.50;4.57;;;;;;;-3.06;71.93;100495.25;4988976;28;20355;-84
2021/12/26 06:30:38;;;;;;;13.73;3.90;;;;;;;-3.01;72.00;100515.28;4994343;28;20144;-84
2021/12/26 06:33:03;;;;;;;11.38;3.85;;;;;;;-3.04;72.31;100510.09;5007538;28;20041;-84
2021/12/26 06:35:29;;;;;;;14.30;4.72;;;;;;;-3.03;71.87;100514.47;4995590;28;20516;-84
2021/12/26 06:37:55;;;;;;;15.18;4.53;;;;;;;-3.04;71.93;100514.50;4993031;28;20175;-84
2021/12/26 06:40:20;;;;;;;15.32;4.28;;;;;;;-3.05;71.69;100513.63;4982516;28;20037;-84
2021/12/26 06:42:48;;;;;;;15.18;4.45;;;;;;;-3.03;72.18;100517.09;4980242;28;20098;-84
2021/12/26 06:45:16;;;;;;;13.95;4.25;;;;;;;-3.01;72.21;100514.44;5000372;28;20449;-84
2021/12/26 06:47:45;;;;;;;12.50;3.65;;;;;;;-3.00;72.02;100524.06;5003579;28;20038;-84
2021/12/26 06:50:12;;;;;;;12.95;3.80;;;;;;;-2.95;71.76;100523.97;4993357;28;20125;-84
2021/12/26 06:52:37;;;;;;;10.27;3.13;;;;;;;-2.97;72.15;100526.63;5009968;28;20057;-84
2021/12/26 06:55:03;;;;;;;12.70;3.80;;;;;;;-2.96;71.85;100507.28;4998021;28;20068;-84
2021/12/26 06:57:28;;;;;;;14.07;4.03;;;;;;;-2.94;71.73;100512.53;5013351;28;20471;-84
2021/12/26 06:59:54;;;;;;;14.13;4.32;;;;;;;-2.96;71.87;100507.28;4993943;28;20112;-84
2021/12/26 07:02:19;;;;;;;14.13;3.97;;;;;;;-2.96;72.01;100512.56;4991913;28;20072;-84
2021/12/26 07:04:46;;;;;;;15.35;4.10;;;;;;;-2.96;71.55;100507.28;4990682;28;20061;-84
2021/12/26 07:07:11;;;;;;;12.73;4.30;;;;;;;-3.00;72.24;100505.66;5002650;28;20057;-84
2021/12/26 07:09:37;;;;;;;12.82;3.80;;;;;;;-3.01;72.20;100506.56;5009582;28;20072;-84
2021/12/26 07:12:02;;;;;;;18.23;4.60;;;;;;;-3.02;72.48;100503.03;4993340;28;20390;-84
2021/12/26 07:14:28;;;;;;;15.30;4.80;;;;;;;-3.01;72.31;100509.19;4991141;28;20029;-84
2021/12/26 07:16:53;;;;;;;14.40;3.60;;;;;;;-3.02;72.15;100513.56;5004965;28;20033;-84
2021/12/26 07:19:18;;;;;;;13.52;3.92;;;;;;;-3.02;72.34;100504.81;4993332;28;20375;-84
2021/12/26 07:21:43;;;;;;;15.15;4.18;;;;;;;-2.97;72.42;100504.69;4988761;28;20069;-84
2021/12/26 07:24:09;;;;;;;13.15;3.80;;;;;;;-2.96;72.33;100509.06;4992071;28;20120;-84
2021/12/26 07:26:34;;;;;;;12.77;3.90;;;;;;;-2.97;72.08;100509.97;5011945;28;20034;-84
2021/12/26 07:29:00;;;;;;;16.25;4.50;;;;;;;-2.96;72.21;100509.06;5016063;28;20029;-84
2021/12/26 07:31:25;;;;;;;16.65;4.85;;;;;;;-3.00;72.76;100508.28;5011233;28;20084;-84
2021/12/26 07:33:51;;;;;;;17.52;5.00;;;;;;;-3.00;72.70;100501.25;4996027;28;20024;-84
2021/12/26 07:36:17;;;;;;;15.35;4.85;;;;;;;-3.01;72.63;100503.91;4980328;28;20036;-84
2021/12/26 07:38:42;;;;;;;13.52;4.05;;;;;;;-3.02;72.87;100508.28;4992327;28;20121;-84
2021/12/26 07:41:07;;;;;;;15.63;4.90;;;;;;;-3.02;72.56;100500.41;5000831;28;20037;-84
2021/12/26 07:43:33;;;;;;;16.25;5.13;;;;;;;-3.00;72.62;100503.03;5012974;28;20122;-84
2021/12/26 07:45:58;;;;;;;13.30;4.03;;;;;;;-3.01;73.20;100498.66;4995107;28;20412;-84
2021/12/26 07:48:23;;;;;;;17.33;5.38;;;;;;;-3.04;72.69;100507.47;4991573;28;20088;-84
2021/12/26 07:50:49;;;;;;;15.18;4.38;;;;;;;-3.03;73.32;100505.69;4989310;28;20029;-84
2021/12/26 07:53:14;;;;;;;14.40;4.53;;;;;;;-3.07;73.12;100490.94;4986055;28;20441;-84
2021/12/26 07:55:39;;;;;;;16.23;5.13;;;;;;;-3.05;73.14;100502.25;5010057;28;20119;-84
2021/12/26 07:58:06;;;;;;;15.70;4.65;;;;;;;-3.07;73.31;100507.56;4997076;28;20060;-84
2021/12/26 08:00:32;;;;;;;18.10;5.43;;;;;;;-3.05;73.59;100513.63;4998003;28;20029;-84
2021/12/26 08:02:58;;;;;;;15.05;4.40;;;;;;;-3.00;73.94;100514.41;5010427;28;20041;-84
2021/12/26 08:05:24;;;;;;;19.30;5.55;;;;;;;-2.96;73.64;100519.59;5013809;28;20026;-84
2021/12/26 08:07:50;;;;;;;16.27;4.50;;;;;;;-2.89;73.40;100527.28;4997900;28;20132;-84
2021/12/26 08:10:15;;;;;;;18.23;4.57;;;;;;;-2.87;73.39;100525.50;5007989;28;20113;-84
2021/12/26 08:12:41;;;;;;;16.10;4.65;;;;;;;-2.81;73.73;100514.84;5008997;28;20088;-84
2021/12/26 08:15:06;;;;;;;16.88;5.40;;;;;;;-2.75;74.09;100518.22;5008181;28;20533;-84
2021/12/26 08:17:32;;;;;;;16.50;5.03;;;;;;;-2.67;73.76;100518.91;5003994;28;20049;-84
2021/12/26 08:19:58;;;;;;;17.33;5.22;;;;;;;-2.61;73.76;100518.75;4997925;28;20029;-84
2021/12/26 08:22:24;;;;;;;16.02;4.30;;;;;;;-2.53;73.78;100529.13;4989316;28;20192;-84
2021/12/26 08:24:49;;;;;;;15.93;4.32;;;;;;;-2.43;73.41;100524.47;4989885;28;20028;-84
2021/12/26 08:27:14;;;;;;;15.63;5.55;;;;;;;-2.37;73.13;100519.03;4999098;28;20037;-84
2021/12/26 08:29:40;;;;;;;16.20;4.43;;;;;;;-2.32;73.69;100509.28;4978308;28;20494;-84
2021/12/26 08:32:07;;;;;;;17.08;5.22;;;;;;;-2.25;72.81;100513.47;4980394;28;20034;-84
2021/12/26 08:34:32;;;;;;;18.85;5.55;;;;;;;-2.17;73.44;100513.28;4989776;28;20022;-84
2021/12/26 08:37:02;;;;;;;17.00;5.20;;;;;;;-2.09;73.33;100511.31;4997050;28;20548;-84
2021/12/26 08:39:33;;;;;;;17.23;5.07;;;;;;;-2.02;73.26;100502.34;5005067;28;20320;-84
2021/12/26 08:41:59;;;;;;;17.23;5.80;;;;;;;-1.93;73.68;100506.50;4972370;28;20026;-84
2021/12/26 08:44:25;;;;;;;16.60;5.25;;;;;;;-1.88;72.63;100512.50;4993177;28;20401;-84
2021/12/26 08:46:50;;;;;;;18.45;5.45;;;;;;;-1.83;72.89;100507.97;5024316;28;20021;-84
2021/12/26 08:49:17;;;;;;;18.55;5.28;;;;;;;-1.81;73.19;100498.25;5007792;28;20148;-84
2021/12/26 08:51:43;;;;;;;16.10;5.22;;;;;;;-1.74;73.28;100503.34;4988620;28;20040;-84
2021/12/26 08:54:09;;;;;;;19.52;5.55;;;;;;;-1.69;72.56;100504.09;4997599;28;20022;-84
2021/12/26 08:56:34;;;;;;;18.83;5.47;;;;;;;-1.63;72.45;100514.44;5010095;28;20137;-84
2021/12/26 08:59:00;;;;;;;12.13;4.25;;;;;;;-1.60;72.97;100509.97;5005991;28;20060;-84
2021/12/26 09:01:25;;;;;;;18.40;5.60;;;;;;;-1.53;72.20;100502.75;5004093;28;20018;-84
2021/12/26 09:03:50;;;;;;;15.50;4.63;;;;;;;-1.47;72.66;100502.56;4994601;28;20509;-84
2021/12/26 09:06:16;;;;;;;13.82;4.28;;;;;;;-1.38;72.18;100498.78;5002197;28;20030;-84
2021/12/26 09:08:41;;;;;;;18.08;5.65;;;;;;;-1.36;72.94;100481.16;4976444;28;20069;-85
2021/12/26 09:11:07;;;;;;;17.63;5.88;;;;;;;-1.31;73.29;100496.84;4995120;28;20052;-84
2021/12/26 09:13:35;;;;;;;18.05;5.95;;;;;;;-1.29;72.64;100498.53;5027480;28;20690;-84
2021/12/26 09:16:01;;;;;;;18.27;5.95;;;;;;;-1.23;72.99;100497.47;5002275;28;20025;-84
2021/12/26 09:18:27;;;;;;;19.38;5.10;;;;;;;-1.18;72.42;100485.00;5012670;28;20482;-84
2021/12/26 09:20:52;;;;;;;16.67;4.78;;;;;;;-1.13;72.91;100491.03;4999165;28;20028;-84
2021/12/26 09:23:17;;;;;;;18.25;5.20;;;;;;;-1.09;72.64;100499.69;4993929;28;20037;-84
2021/12/26 09:25:43;;;;;;;16.10;5.35;;;;;;;-1.04;72.26;100502.19;4998848;28;20036;-84
2021/12/26 09:28:09;;;;;;;19.13;6.25;;;;;;;-0.97;72.23;100503.72;5004278;28;20025;-84
2021/12/26 09:30:35;;;;;;;16.60;5.75;;;;;;;-0.96;72.34;100501.03;5019609;28;20430;-84
2021/12/26 09:33:00;;;;;;;18.73;5.38;;;;;;;-0.92;71.94;100507.09;4996500;28;20489;-84
2021/12/26 09:35:26;;;;;;;17.48;6.47;;;;;;;-0.91;72.44;100503.53;4994378;28;20049;-84
2021/12/26 09:37:51;;;;;;;16.02;5.55;;;;;;;-0.89;72.11;100507.00;4999475;28;20083;-84
2021/12/26 09:40:19;;;;;;;16.75;4.95;;;;;;;-0.88;72.41;100504.31;5002870;28;20033;-84
2021/12/26 09:42:46;;;;;;;18.63;5.25;;;;;;;-0.84;72.64;100512.13;4992528;28;20049;-84
2021/12/26 09:45:12;;;;;;;16.80;5.30;;;;;;;-0.77;72.47;100514.50;4995850;28;20033;-84
2021/12/26 09:47:39;;;;;;;16.35;4.97;;;;;;;-0.74;73.10;100509.13;4994532;28;20033;-84
2021/12/26 09:50:07;;;;;;;17.15;5.00;;;;;;;-0.69;73.00;100516.03;4992447;28;20037;-84
2021/12/26 09:52:32;;;;;;;22.55;6.57;;;;;;;-0.63;72.71;100502.66;5001722;28;20488;-85
2021/12/26 09:54:58;;;;;;;18.67;5.53;;;;;;;-0.59;72.94;100502.50;5011208;28;20029;-84
2021/12/26 09:57:23;;;;;;;17.73;5.60;;;;;;;-0.55;72.38;100501.47;4994613;28;20021;-84
2021/12/26 09:59:49;;;;;;;19.17;6.65;;;;;;;-0.53;73.11;100498.78;5027966;28;20502;-84
2021/12/26 10:02:16;;;;;;;18.73;5.53;;;;;;;-0.47;72.72;100498.59;4995441;28;20041;-84
2021/12/26 10:04:43;;;;;;;17.58;5.68;;;;;;;-0.39;72.96;100501.84;4994439;28;20034;-84
2021/12/26 10:07:12;;;;;;;17.42;5.50;;;;;;;-0.38;73.38;100487.72;4993134;28;20096;-84
2021/12/26 10:09:42;;;;;;;20.65;6.50;;;;;;;-0.32;72.71;100477.84;4993080;28;20033;-84
2021/12/26 10:12:09;;;;;;;18.30;6.45;;;;;;;-0.26;73.09;100478.53;4998157;28;20028;-83
2021/12/26 10:14:38;;;;;;;22.48;6.55;;;;;;;-0.24;72.59;100478.47;4995709;28;20033;-84
2021/12/26 10:17:08;;;;;;;20.07;6.47;;;;;;;-0.20;72.56;100470.38;4993607;28;20025;-84
2021/12/26 10:19:46;;;;;;;17.30;5.57;;;;;;;-0.16;72.65;100465.00;4993037;28;20661;-84
2021/12/26 10:22:17;;;;;;;21.45;7.38;;;;;;;-0.15;72.89;100464.94;5012121;28;20045;-83
2021/12/26 10:24:45;;;;;;;15.20;5.65;;;;;;;-0.12;73.44;100458.69;4992947;28;20034;-83
2021/12/26 10:27:13;;;;;;;20.10;7.15;;;;;;;-0.08;73.31;100458.53;4994657;28;20053;-83
2021/12/26 10:29:44;;;;;;;18.85;6.43;;;;;;;-0.03;72.73;100461.00;5022776;28;20044;-83
2021/12/26 10:32:15;;;;;;;23.17;6.45;;;;;;;0.01;73.39;100453.84;5016651;28;20028;-83
2021/12/26 10:34:47;;;;;;;21.27;6.45;;;;;;;0.01;73.48;100446.75;5011776;28;20030;-83
2021/12/26 10:37:14;;;;;;;19.88;6.60;;;;;;;0.05;73.73;100448.38;4994400;28;20029;-83
2021/12/26 10:39:43;;;;;;;20.35;7.45;;;;;;;0.08;72.93;100442.13;4988128;28;20033;-83
2021/12/26 10:42:16;;;;;;;16.90;5.73;;;;;;;0.11;73.55;100442.88;5011975;28;20025;-83
2021/12/26 10:44:48;;;;;;;19.38;6.82;;;;;;;0.17;73.47;100442.63;5007508;28;20022;-83
2021/12/26 10:47:16;;;;;;;19.60;6.50;;;;;;;0.21;72.82;100438.13;4987876;28;20422;-83
2021/12/26 10:50:11;;;;;;;21.17;6.65;;;;;;;0.26;73.15;100444.06;4992864;28;20164;-83
2021/12/26 10:52:42;;;;;;;19.88;6.50;;;;;;;0.23;73.06;100433.63;5002133;28;20037;-83
2021/12/26 10:55:12;;;;;;;18.67;6.45;;;;;;;0.25;73.38;100428.28;4990773;28;20139;-83
2021/12/26 10:57:59;;;;;;;18.58;7.03;;;;;;;0.28;73.37;100436.97;4992836;28;20029;-83
2021/12/26 11:00:37;;;;;;;19.42;6.28;;;;;;;0.33;73.29;100427.06;4987971;28;20034;-83
2021/12/26 11:03:07;;;;;;;20.25;6.75;;;;;;;0.36;73.61;100422.59;4990521;28;20494;-83
2021/12/26 11:05:38;;;;;;;20.52;7.00;;;;;;;0.38;73.42;100416.34;5006437;28;20049;-83
2021/12/26 11:08:11;;;;;;;19.55;6.78;;;;;;;0.44;73.50;100412.59;4986618;28;20549;-83
2021/12/26 11:10:39;;;;;;;21.52;7.82;;;;;;;0.48;73.22;100419.47;5007153;28;20038;-83
2021/12/26 11:13:08;;;;;;;20.88;6.45;;;;;;;0.50;73.53;100415.88;5009925;28;20509;-83
2021/12/26 11:15:38;;;;;;;21.98;7.15;;;;;;;0.54;73.61;100413.94;5008692;28;20048;-83
2021/12/26 11:18:07;;;;;;;19.88;6.47;;;;;;;0.50;73.52;100415.03;5014839;28;20030;-82
2021/12/26 11:20:34;;;;;;;20.93;7.70;;;;;;;0.50;73.67;100409.72;5018280;28;20035;-83
2021/12/26 11:23:09;;;;;;;21.38;7.45;;;;;;;0.53;73.86;100404.31;4999998;28;20033;-83
2021/12/26 11:25:36;;;;;;;20.58;6.78;;;;;;;0.53;73.98;100420.19;5023267;28;20042;-83